Time;durP1;ratioP1;P1;durP2;ratioP2;P2;SDS_P1;SDS_P2;PMS_P1;PMS_P2;Temp;Humidity;BMP_temperature;BMP_pressure;BME280_temperature;BME280_humidity;BME280_pressure;Samples;Min_cycle;Max_cycle;Signal;HPM_P1;HPM_P2
2021/06/28 00:01:02;;;;;;;3.23;1.87;;;19.30;89.20;;;;;;5133046;28;20472;-69
2021/06/28 00:03:29;;;;;;;4.80;1.73;;;19.30;88.60;;;;;;5121777;28;20434;-70
2021/06/28 00:05:56;;;;;;;3.23;1.53;;;19.30;88.60;;;;;;5112672;28;20916;-69
2021/06/28 00:08:23;;;;;;;4.57;1.57;;;19.30;88.90;;;;;;5127678;27;20461;-69
2021/06/28 00:10:52;;;;;;;2.97;1.60;;;19.20;88.60;;;;;;5137205;27;20449;-69
2021/06/28 00:13:19;;;;;;;3.10;2.13;;;19.20;88.20;;;;;;5123702;27;21012;-69
2021/06/28 00:15:47;;;;;;;2.77;1.73;;;19.20;89.40;;;;;;5116659;28;20480;-69
2021/06/28 00:18:16;;;;;;;3.00;1.47;;;19.10;90.00;;;;;;5127649;27;20850;-69
2021/06/28 00:20:43;;;;;;;2.73;1.57;;;19.00;90.10;;;;;;5137115;27;20438;-69
2021/06/28 00:23:10;;;;;;;4.80;1.43;;;18.90;90.30;;;;;;5125042;27;20462;-69
2021/06/28 00:25:38;;;;;;;2.70;1.67;;;18.90;90.40;;;;;;5116405;28;20477;-69
2021/06/28 00:28:07;;;;;;;2.60;1.60;;;18.80;90.60;;;;;;5125856;27;20831;-69
2021/06/28 00:30:37;;;;;;;4.13;1.40;;;18.80;90.70;;;;;;5137024;27;20456;-69
2021/06/28 00:33:05;;;;;;;3.30;1.90;;;18.90;90.70;;;;;;5126115;27;20783;-69
2021/06/28 00:35:33;;;;;;;5.47;1.80;;;18.80;90.80;;;;;;5115929;28;20434;-69
2021/06/28 00:38:00;;;;;;;3.63;1.40;;;18.90;91.00;;;;;;5135280;27;20456;-69
2021/06/28 00:40:28;;;;;;;2.87;1.60;;;18.90;91.00;;;;;;5136378;27;20437;-69
2021/06/28 00:42:55;;;;;;;2.70;1.70;;;18.90;91.00;;;;;;5116685;27;20951;-69
2021/06/28 00:45:26;;;;;;;2.60;1.83;;;18.90;90.90;;;;;;5115822;28;20434;-70
2021/06/28 00:47:56;;;;;;;3.60;1.87;;;18.90;90.80;;;;;;5134139;27;20430;-69
2021/06/28 00:50:25;;;;;;;2.53;2.10;;;18.90;91.00;;;;;;5136326;27;20860;-69
2021/06/28 00:52:57;;;;;;;2.40;1.30;;;18.90;91.10;;;;;;5136443;27;20441;-69
2021/06/28 00:55:25;;;;;;;2.70;2.50;;;18.90;91.10;;;;;;5136525;27;20469;-72
2021/06/28 00:57:52;;;;;;;6.60;2.43;;;18.90;91.00;;;;;;5117017;27;20437;-69
2021/06/28 01:00:21;;;;;;;3.43;2.00;;;18.90;91.10;;;;;;5115513;28;20438;-69
2021/06/28 01:02:50;;;;;;;2.60;1.67;;;18.90;91.40;;;;;;5132323;27;20429;-69
2021/06/28 01:05:23;;;;;;;4.93;2.27;;;18.90;91.10;;;;;;5135972;27;20434;-69
2021/06/28 01:07:51;;;;;;;4.00;2.50;;;18.90;91.20;;;;;;5118015;27;20445;-69
2021/06/28 01:10:19;;;;;;;4.03;2.13;;;18.90;91.10;;;;;;5115360;28;20478;-73
2021/06/28 01:12:48;;;;;;;4.93;2.70;;;18.90;91.30;;;;;;5131310;27;20490;-69
2021/06/28 01:15:17;;;;;;;2.50;1.60;;;18.90;91.30;;;;;;5136174;27;20522;-69
2021/06/28 01:17:48;;;;;;;2.97;1.93;;;18.90;91.30;;;;;;5119219;27;20438;-69
2021/06/28 01:20:19;;;;;;;3.37;1.80;;;18.90;91.40;;;;;;5114762;28;20939;-70
2021/06/28 01:22:49;;;;;;;4.33;1.67;;;18.90;91.50;;;;;;5115032;27;20427;-70
2021/06/28 01:25:19;;;;;;;3.77;1.90;;;18.90;91.40;;;;;;5115335;28;20442;-70
2021/06/28 01:27:52;;;;;;;4.57;1.30;;;18.80;91.50;;;;;;5131810;27;20437;-70
2021/06/28 01:30:25;;;;;;;2.73;1.80;;;18.80;91.70;;;;;;5135569;27;20484;-69
2021/06/28 01:32:52;;;;;;;3.90;2.00;;;18.70;91.80;;;;;;5118435;27;20494;-69
2021/06/28 01:35:20;;;;;;;4.17;1.90;;;18.70;92.10;;;;;;5114967;28;20787;-70
2021/06/28 01:37:47;;;;;;;3.47;1.97;;;18.60;92.20;;;;;;5131234;27;20457;-69
2021/06/28 01:40:16;;;;;;;3.30;2.20;;;18.60;92.40;;;;;;5135503;27;20490;-69
2021/06/28 01:42:46;;;;;;;3.97;2.37;;;18.60;92.50;;;;;;5119449;27;20844;-69
2021/06/28 01:45:17;;;;;;;3.63;1.90;;;18.60;92.30;;;;;;5114777;28;20470;-69
2021/06/28 01:47:44;;;;;;;2.60;1.73;;;18.70;92.30;;;;;;5130447;27;20468;-69
2021/06/28 01:50:14;;;;;;;3.10;1.97;;;18.70;92.20;;;;;;5135165;27;20512;-68
2021/06/28 01:52:41;;;;;;;3.23;1.70;;;18.70;92.60;;;;;;5120028;27;20503;-69
2021/06/28 01:55:10;;;;;;;4.63;2.10;;;18.70;92.80;;;;;;5114563;28;20438;-69
2021/06/28 01:57:41;;;;;;;2.43;1.83;;;18.70;92.90;;;;;;5128789;27;20437;-68
2021/06/28 02:00:12;;;;;;;7.07;2.30;;;18.70;93.00;;;;;;5133155;27;20435;-72
2021/06/28 02:02:40;;;;;;;5.40;1.50;;;18.70;93.10;;;;;;5135178;27;20444;-69
2021/06/28 02:05:08;;;;;;;2.67;2.23;;;18.70;93.20;;;;;;5124933;27;20426;-68
2021/06/28 02:07:35;;;;;;;3.13;2.00;;;18.70;93.00;;;;;;5127967;27;20429;-69
2021/06/28 02:10:03;;;;;;;3.20;1.87;;;18.70;92.80;;;;;;5125995;27;20474;-69
2021/06/28 02:12:30;;;;;;;4.27;2.07;;;18.60;93.00;;;;;;5113344;28;20488;-68
2021/06/28 02:14:57;;;;;;;6.47;1.70;;;18.60;93.00;;;;;;5120818;27;20465;-70
2021/06/28 02:17:26;;;;;;;3.07;2.00;;;18.60;92.80;;;;;;5122078;27;20439;-69
2021/06/28 02:19:53;;;;;;;5.80;2.50;;;18.60;93.00;;;;;;5119470;27;20430;-69
2021/06/28 02:22:20;;;;;;;4.30;2.70;;;18.50;93.00;;;;;;5134586;27;20437;-69
2021/06/28 02:24:47;;;;;;;3.77;2.50;;;18.50;93.10;;;;;;5130048;27;20434;-68
2021/06/28 02:27:17;;;;;;;5.80;2.37;;;18.40;93.20;;;;;;5123516;27;20832;-68
2021/06/28 02:29:48;;;;;;;4.73;2.77;;;18.30;93.30;;;;;;5131168;27;20477;-70
2021/06/28 02:32:15;;;;;;;3.67;2.33;;;18.30;93.30;;;;;;5113088;28;20445;-68
2021/06/28 02:34:44;;;;;;;4.60;2.50;;;18.30;93.50;;;;;;5115281;27;20434;-68
2021/06/28 02:37:11;;;;;;;3.90;1.90;;;18.20;93.60;;;;;;5134406;27;20438;-68
2021/06/28 02:39:38;;;;;;;5.23;2.20;;;18.20;93.60;;;;;;5119064;27;20443;-68
2021/06/28 02:42:05;;;;;;;7.00;2.70;;;18.10;93.70;;;;;;5113677;28;20499;-68
2021/06/28 02:44:32;;;;;;;2.97;2.33;;;18.00;93.70;;;;;;5114584;27;20435;-70
2021/06/28 02:46:59;;;;;;;4.17;2.10;;;18.00;93.70;;;;;;5113463;28;20430;-68
2021/06/28 02:49:26;;;;;;;4.07;1.97;;;18.10;93.80;;;;;;5128288;27;21033;-68
2021/06/28 02:51:55;;;;;;;2.63;1.70;;;18.00;93.90;;;;;;5132391;27;20434;-69
2021/06/28 02:54:22;;;;;;;2.50;1.70;;;18.00;94.00;;;;;;5113469;28;20454;-69
2021/06/28 02:56:49;;;;;;;3.33;2.27;;;18.00;94.20;;;;;;5113555;28;20434;-68
2021/06/28 02:59:16;;;;;;;4.30;2.50;;;18.00;94.00;;;;;;5113973;27;20955;-69
2021/06/28 03:01:43;;;;;;;6.07;3.20;;;18.00;93.90;;;;;;5113427;28;20473;-68
2021/06/28 03:04:10;;;;;;;4.13;2.80;;;17.90;94.30;;;;;;5131945;27;20465;-68
2021/06/28 03:06:37;;;;;;;3.97;2.77;;;17.80;94.50;;;;;;5133700;27;20490;-68
2021/06/28 03:09:06;;;;;;;2.20;1.50;;;17.80;94.50;;;;;;5116205;27;20499;-68
2021/06/28 03:11:33;;;;;;;2.83;1.97;;;17.80;94.70;;;;;;5113143;28;20461;-69
2021/06/28 03:14:00;;;;;;;4.73;2.93;;;17.70;94.60;;;;;;5128789;27;20503;-68
2021/06/28 03:16:27;;;;;;;3.70;2.60;;;17.70;94.70;;;;;;5133722;27;20968;-69
2021/06/28 03:18:54;;;;;;;7.70;3.30;;;17.60;94.90;;;;;;5117821;27;20435;-68
2021/06/28 03:21:22;;;;;;;3.50;2.10;;;17.70;94.90;;;;;;5113199;28;20521;-69
2021/06/28 03:23:49;;;;;;;3.60;2.20;;;17.70;95.00;;;;;;5126675;27;20429;-69
2021/06/28 03:26:17;;;;;;;3.50;2.23;;;17.70;94.80;;;;;;5133550;27;20440;-69
2021/06/28 03:28:47;;;;;;;4.33;2.50;;;17.70;94.60;;;;;;5119370;27;20502;-68
2021/06/28 03:31:15;;;;;;;5.13;2.60;;;17.70;94.60;;;;;;5112998;28;20482;-69
2021/06/28 03:33:43;;;;;;;5.20;2.90;;;17.80;94.50;;;;;;5125531;28;20437;-68
2021/06/28 03:36:16;;;;;;;4.87;2.63;;;17.80;94.80;;;;;;5133501;28;20434;-69
2021/06/28 03:38:43;;;;;;;9.43;3.23;;;17.80;94.80;;;;;;5119919;28;20823;-68
2021/06/28 03:41:12;;;;;;;5.00;2.73;;;17.80;94.70;;;;;;5112527;28;20495;-69
2021/06/28 03:43:43;;;;;;;3.60;2.57;;;17.90;94.70;;;;;;5095021;28;20438;-68
2021/06/28 03:46:10;;;;;;;5.10;3.20;;;17.90;94.60;;;;;;5096818;28;20442;-68
2021/06/28 03:48:37;;;;;;;5.00;4.50;;;17.90;94.50;;;;;;5129266;27;20476;-68
2021/06/28 03:51:05;;;;;;;6.70;4.20;;;17.90;94.40;;;;;;5137596;27;20485;-68
2021/06/28 03:53:34;;;;;;;7.80;3.30;;;17.90;94.30;;;;;;5118473;27;20445;-69
2021/06/28 03:56:06;;;;;;;6.00;2.83;;;17.90;94.20;;;;;;5116861;28;20512;-69
2021/06/28 03:58:36;;;;;;;3.07;2.27;;;17.90;94.10;;;;;;5117631;27;20442;-69
2021/06/28 04:01:06;;;;;;;9.53;2.60;;;17.90;94.10;;;;;;5135703;27;20795;-68
2021/06/28 04:03:39;;;;;;;4.97;2.40;;;17.90;94.10;;;;;;5119744;27;20434;-69
2021/06/28 04:06:07;;;;;;;4.60;2.40;;;18.00;94.10;;;;;;5117023;28;20557;-68
2021/06/28 04:08:36;;;;;;;5.47;2.03;;;18.00;94.10;;;;;;5133428;27;20437;-68
2021/06/28 04:11:06;;;;;;;3.73;2.63;;;18.00;94.40;;;;;;5136549;27;20476;-68
2021/06/28 04:13:43;;;;;;;4.70;2.63;;;18.00;94.20;;;;;;5121087;27;20499;-68
2021/06/28 04:16:14;;;;;;;3.77;2.47;;;18.00;94.30;;;;;;5116810;28;20442;-68
2021/06/28 04:18:41;;;;;;;5.20;2.60;;;18.10;94.20;;;;;;5132426;27;20481;-69
2021/06/28 04:21:08;;;;;;;4.93;2.90;;;18.10;94.20;;;;;;5116628;28;20515;-68
2021/06/28 04:23:35;;;;;;;5.50;2.83;;;18.20;94.20;;;;;;5131387;27;20464;-68
2021/06/28 04:26:02;;;;;;;7.83;2.70;;;18.20;94.10;;;;;;5137023;27;20437;-69
2021/06/28 04:28:29;;;;;;;3.53;2.60;;;18.20;94.30;;;;;;5122943;27;20437;-70
2021/06/28 04:30:56;;;;;;;4.27;2.30;;;18.30;94.20;;;;;;5134556;27;20487;-70
2021/06/28 04:33:25;;;;;;;4.53;2.00;;;18.40;94.30;;;;;;5124509;27;20442;-68
2021/06/28 04:35:52;;;;;;;3.30;1.90;;;18.40;94.10;;;;;;5116321;28;20934;-68
2021/06/28 04:38:20;;;;;;;3.13;2.37;;;18.50;94.00;;;;;;5127380;27;20792;-68
2021/06/28 04:40:49;;;;;;;3.20;2.40;;;18.50;93.90;;;;;;5119525;27;20445;-69
2021/06/28 04:43:16;;;;;;;3.83;2.10;;;18.60;93.80;;;;;;5126001;27;20433;-69
2021/06/28 04:45:43;;;;;;;3.23;2.30;;;18.60;93.80;;;;;;5136863;27;20497;-73
2021/06/28 04:48:12;;;;;;;3.40;2.50;;;18.70;93.70;;;;;;5127668;27;20505;-68
2021/06/28 04:50:40;;;;;;;6.00;2.00;;;18.70;93.60;;;;;;5129886;27;20477;-68
2021/06/28 04:53:07;;;;;;;4.63;2.53;;;18.70;93.40;;;;;;5128554;27;20776;-69
2021/06/28 04:55:34;;;;;;;4.87;2.80;;;18.80;93.40;;;;;;5114872;28;20491;-69
2021/06/28 04:58:01;;;;;;;3.63;2.23;;;18.70;93.90;;;;;;5121778;27;20524;-69
2021/06/28 05:00:28;;;;;;;2.60;2.00;;;18.70;93.90;;;;;;5122626;27;20771;-69
2021/06/28 05:02:55;;;;;;;2.87;2.23;;;18.70;93.30;;;;;;5123527;27;20429;-72
2021/06/28 05:05:23;;;;;;;3.07;2.10;;;18.80;93.30;;;;;;5123673;27;20429;-69
2021/06/28 05:07:53;;;;;;;4.50;2.50;;;18.80;93.10;;;;;;5126301;27;20774;-69
2021/06/28 05:10:20;;;;;;;3.40;2.60;;;18.90;93.40;;;;;;5124549;27;20481;-70
2021/06/28 05:12:47;;;;;;;3.83;3.10;;;18.90;93.60;;;;;;5128458;27;20433;-68
2021/06/28 05:15:15;;;;;;;3.17;2.20;;;19.00;93.60;;;;;;5124203;27;20561;-68
2021/06/28 05:17:42;;;;;;;3.70;2.07;;;19.10;93.40;;;;;;5127018;27;20465;-68
2021/06/28 05:20:11;;;;;;;4.53;2.30;;;19.20;93.20;;;;;;5136707;27;20499;-68
2021/06/28 05:22:39;;;;;;;2.53;1.77;;;19.20;92.70;;;;;;5136686;27;20512;-68
2021/06/28 05:25:12;;;;;;;2.67;1.83;;;19.30;92.90;;;;;;5136554;27;20524;-68
2021/06/28 05:27:40;;;;;;;2.37;1.83;;;19.40;93.00;;;;;;5119648;27;20434;-69
2021/06/28 05:30:09;;;;;;;3.17;2.10;;;19.50;92.90;;;;;;5115706;28;20617;-68
2021/06/28 05:32:36;;;;;;;3.20;2.37;;;19.60;93.30;;;;;;5116883;27;20847;-68
2021/06/28 05:35:05;;;;;;;3.20;1.93;;;19.70;93.50;;;;;;5115506;27;20521;-68
2021/06/28 05:37:37;;;;;;;3.10;1.70;;;19.70;93.50;;;;;;5115527;28;20481;-69
2021/06/28 05:40:05;;;;;;;2.40;1.90;;;19.70;92.90;;;;;;5115265;28;20434;-68
2021/06/28 05:42:38;;;;;;;2.90;2.00;;;19.80;93.40;;;;;;5115916;27;20495;-68
2021/06/28 05:45:07;;;;;;;3.30;1.53;;;19.90;92.40;;;;;;5114550;27;20998;-69
2021/06/28 05:47:35;;;;;;;3.30;1.93;;;20.00;92.40;;;;;;5094584;28;20453;-68
2021/06/28 05:50:02;;;;;;;3.70;2.03;;;20.10;92.00;;;;;;5106776;27;20473;-68
2021/06/28 05:52:29;;;;;;;3.83;1.87;;;20.20;92.20;;;;;;5133423;27;20792;-68
2021/06/28 05:54:58;;;;;;;2.97;2.00;;;20.20;91.90;;;;;;5134117;27;20429;-69
2021/06/28 05:57:25;;;;;;;2.40;1.70;;;20.30;91.80;;;;;;5131703;27;20437;-69
2021/06/28 05:59:55;;;;;;;2.50;1.90;;;20.40;92.10;;;;;;5129464;27;20453;-68
2021/06/28 06:02:22;;;;;;;4.70;2.13;;;20.50;92.00;;;;;;5133698;27;20469;-68
2021/06/28 06:04:50;;;;;;;2.47;1.77;;;20.60;91.60;;;;;;5132375;27;20517;-69
2021/06/28 06:07:17;;;;;;;2.73;1.87;;;20.70;91.50;;;;;;5117931;27;20848;-69
2021/06/28 06:09:45;;;;;;;9.53;2.50;;;20.80;91.20;;;;;;5115048;28;20524;-69
2021/06/28 06:12:13;;;;;;;2.53;1.67;;;20.80;90.60;;;;;;5132202;27;20473;-68
2021/06/28 06:14:40;;;;;;;3.00;1.97;;;20.90;90.90;;;;;;5135119;27;21116;-69
2021/06/28 06:17:09;;;;;;;2.77;1.80;;;21.00;91.00;;;;;;5134621;27;20433;-69
2021/06/28 06:19:36;;;;;;;2.50;1.87;;;21.10;91.00;;;;;;5114823;28;20517;-69
2021/06/28 06:22:03;;;;;;;2.23;1.77;;;21.20;90.10;;;;;;5120899;27;21003;-69
2021/06/28 06:24:30;;;;;;;5.10;3.27;;;21.30;90.10;;;;;;5121989;27;20862;-69
2021/06/28 06:26:57;;;;;;;3.90;2.97;;;21.40;90.10;;;;;;5125701;27;20991;-69
2021/06/28 06:29:24;;;;;;;3.80;3.00;;;21.50;90.20;;;;;;5134610;27;20434;-70
2021/06/28 06:31:51;;;;;;;3.70;2.20;;;21.60;90.80;;;;;;5118922;27;20482;-69
2021/06/28 06:34:20;;;;;;;2.40;2.00;;;21.80;91.30;;;;;;5119211;27;20476;-69
2021/06/28 06:36:47;;;;;;;6.20;3.47;;;21.90;91.20;;;;;;5122214;27;20936;-68
2021/06/28 06:39:14;;;;;;;3.43;2.10;;;22.00;90.80;;;;;;5123086;27;20468;-68
2021/06/28 06:41:41;;;;;;;4.50;3.53;;;22.00;89.40;;;;;;5121455;27;20442;-69
2021/06/28 06:44:09;;;;;;;3.13;2.30;;;22.10;88.90;;;;;;5124996;27;20495;-69
2021/06/28 06:46:36;;;;;;;4.60;2.47;;;22.20;88.70;;;;;;5123844;27;20448;-69
2021/06/28 06:49:04;;;;;;;3.27;1.83;;;22.30;89.40;;;;;;5121952;27;20442;-68
2021/06/28 06:51:34;;;;;;;7.20;2.07;;;22.40;90.40;;;;;;5121207;27;20997;-69
2021/06/28 06:54:01;;;;;;;2.63;1.80;;;22.60;90.30;;;;;;5117366;27;20499;-70
2021/06/28 06:56:28;;;;;;;2.47;1.83;;;22.70;90.30;;;;;;5119779;27;20517;-69
2021/06/28 06:58:54;;;;;;;2.33;1.50;;;22.70;90.20;;;;;;5123105;27;20990;-69
2021/06/28 07:01:21;;;;;;;3.33;2.20;;;22.80;90.10;;;;;;5123733;27;20524;-69
2021/06/28 07:03:49;;;;;;;2.40;1.60;;;22.90;89.70;;;;;;5106104;27;20513;-69
2021/06/28 07:06:16;;;;;;;21.80;2.83;;;23.00;89.60;;;;;;5122815;27;20513;-70
2021/06/28 07:08:44;;;;;;;3.57;2.00;;;23.10;89.00;;;;;;5124207;27;20496;-69
2021/06/28 07:11:12;;;;;;;2.03;1.50;;;23.20;88.60;;;;;;5119657;27;20470;-69
2021/06/28 07:13:39;;;;;;;3.10;1.90;;;23.30;86.40;;;;;;5123841;27;20950;-69
2021/06/28 07:16:07;;;;;;;4.10;2.40;;;23.30;83.90;;;;;;5120881;27;20540;-69
2021/06/28 07:18:34;;;;;;;2.60;1.70;;;23.40;84.00;;;;;;5114684;27;20950;-69
2021/06/28 07:21:03;;;;;;;3.50;1.73;;;23.60;85.50;;;;;;5119098;27;20488;-69
2021/06/28 07:23:30;;;;;;;2.97;1.90;;;23.70;85.10;;;;;;5120984;27;20441;-70
2021/06/28 07:25:59;;;;;;;2.90;1.97;;;23.70;80.30;;;;;;5123260;27;20521;-69
2021/06/28 07:28:28;;;;;;;3.50;2.13;;;23.80;81.10;;;;;;5122363;27;20449;-68
2021/06/28 07:30:57;;;;;;;2.87;1.83;;;23.90;82.10;;;;;;5123361;27;20480;-69
2021/06/28 07:33:24;;;;;;;3.70;2.20;;;24.00;80.50;;;;;;5120797;28;20447;-69
2021/06/28 07:35:51;;;;;;;2.43;2.00;;;24.10;77.60;;;;;;5121099;28;20533;-69
2021/06/28 07:38:18;;;;;;;3.77;1.93;;;24.20;77.60;;;;;;5124651;28;20437;-69
2021/06/28 07:40:45;;;;;;;3.80;2.13;;;24.30;77.70;;;;;;5119650;28;20528;-69
2021/06/28 07:43:13;;;;;;;5.20;1.80;;;24.40;76.20;;;;;;5123358;28;20516;-69
2021/06/28 07:45:40;;;;;;;4.53;1.97;;;24.50;75.90;;;;;;5121300;28;20538;-69
2021/06/28 07:48:08;;;;;;;2.33;1.33;;;24.60;75.60;;;;;;5121208;28;20524;-70
2021/06/28 07:50:35;;;;;;;4.97;4.50;;;24.70;76.30;;;;;;5113695;28;20522;-69
2021/06/28 07:53:02;;;;;;;5.33;2.03;;;24.80;76.80;;;;;;5111015;28;20525;-69
2021/06/28 07:55:29;;;;;;;3.03;1.80;;;24.90;77.10;;;;;;5117960;28;20944;-69
2021/06/28 07:57:56;;;;;;;2.23;1.67;;;25.10;77.80;;;;;;5119083;28;20441;-69
2021/06/28 08:00:24;;;;;;;2.70;2.17;;;25.20;79.10;;;;;;5116969;28;20437;-69
2021/06/28 08:02:51;;;;;;;3.30;2.40;;;25.30;77.50;;;;;;5110672;28;20522;-69
2021/06/28 08:05:18;;;;;;;3.83;2.40;;;25.40;76.20;;;;;;5114622;28;20870;-70
2021/06/28 08:07:46;;;;;;;5.17;2.23;;;25.60;77.60;;;;;;5119249;28;20444;-70
2021/06/28 08:10:15;;;;;;;3.10;2.53;;;25.80;77.30;;;;;;5115073;28;20519;-69
2021/06/28 08:12:43;;;;;;;5.97;2.10;;;25.90;75.20;;;;;;5111623;28;20984;-69
2021/06/28 08:15:11;;;;;;;2.60;2.03;;;26.00;73.20;;;;;;5108006;28;20493;-70
2021/06/28 08:17:40;;;;;;;3.37;1.93;;;26.10;71.50;;;;;;5115509;28;20491;-69
2021/06/28 08:20:09;;;;;;;8.80;6.57;;;26.10;71.10;;;;;;5109142;28;20532;-69
2021/06/28 08:22:37;;;;;;;2.93;2.23;;;26.20;69.90;;;;;;5118888;28;20935;-69
2021/06/28 08:25:05;;;;;;;5.83;2.37;;;26.30;71.20;;;;;;5116470;28;20442;-68
2021/06/28 08:27:32;;;;;;;3.33;2.40;;;26.40;70.40;;;;;;5116274;28;20516;-69
2021/06/28 08:29:59;;;;;;;2.67;2.00;;;26.50;70.10;;;;;;5112172;27;20440;-69
2021/06/28 08:32:26;;;;;;;3.97;3.57;;;26.60;68.90;;;;;;5120591;27;20472;-69
2021/06/28 08:34:55;;;;;;;2.93;2.63;;;26.70;69.40;;;;;;5117816;27;20528;-69
2021/06/28 08:37:22;;;;;;;4.63;3.17;;;26.90;69.50;;;;;;5117112;27;20447;-69
2021/06/28 08:39:49;;;;;;;6.43;2.10;;;27.00;68.80;;;;;;5122500;27;20552;-72
2021/06/28 08:42:18;;;;;;;2.90;2.27;;;27.30;65.30;;;;;;5118788;27;20430;-69
2021/06/28 08:44:46;;;;;;;4.27;2.70;;;27.30;68.60;;;;;;5116855;27;20490;-69
2021/06/28 08:47:13;;;;;;;3.97;1.97;;;27.50;64.70;;;;;;5120530;27;20513;-70
2021/06/28 08:49:41;;;;;;;3.43;1.90;;;27.60;61.70;;;;;;5121466;27;20541;-70
2021/06/28 08:52:10;;;;;;;2.60;2.17;;;27.70;62.00;;;;;;5124183;27;20874;-69
2021/06/28 08:54:37;;;;;;;3.27;2.57;;;27.80;61.80;;;;;;5124838;27;20521;-70
2021/06/28 08:57:04;;;;;;;2.77;2.20;;;27.90;61.40;;;;;;5126076;27;20813;-70
2021/06/28 08:59:31;;;;;;;2.80;2.00;;;28.00;63.00;;;;;;5124835;27;20520;-69
2021/06/28 09:01:58;;;;;;;3.83;1.87;;;28.10;60.10;;;;;;5123918;27;20521;-69
2021/06/28 09:04:25;;;;;;;3.37;2.30;;;28.20;58.60;;;;;;5124899;27;20513;-69
2021/06/28 09:06:52;;;;;;;2.87;2.10;;;28.20;58.80;;;;;;5123700;27;20441;-69
2021/06/28 09:09:22;;;;;;;2.73;2.00;;;28.30;59.30;;;;;;5126541;27;20532;-70
2021/06/28 09:11:51;;;;;;;4.37;2.17;;;28.40;62.60;;;;;;5124081;27;20478;-70
2021/06/28 09:14:20;;;;;;;2.73;2.30;;;28.60;62.20;;;;;;5123523;27;20470;-70
2021/06/28 09:16:48;;;;;;;2.83;1.90;;;28.70;62.20;;;;;;5125400;27;20542;-69
2021/06/28 09:19:17;;;;;;;3.30;2.37;;;28.80;62.00;;;;;;5124603;27;20486;-70
2021/06/28 09:21:46;;;;;;;2.90;2.30;;;28.80;58.30;;;;;;5125892;27;20452;-69
2021/06/28 09:24:31;;;;;;;2.50;2.30;;;28.80;58.30;;;;;;5124127;27;20944;-69
2021/06/28 09:27:20;;;;;;;3.80;1.90;;;28.90;58.20;;;;;;5119852;27;20514;-69
2021/06/28 09:29:52;;;;;;;3.83;2.00;;;28.90;57.10;;;;;;5123691;27;20499;-70
2021/06/28 09:32:20;;;;;;;2.40;1.70;;;28.80;57.40;;;;;;5125909;27;20566;-72
2021/06/28 09:34:48;;;;;;;2.50;2.00;;;28.90;56.10;;;;;;5123709;27;20516;-71
2021/06/28 09:37:17;;;;;;;2.53;1.97;;;28.80;57.40;;;;;;5118961;27;20521;-69
2021/06/28 09:39:47;;;;;;;4.03;2.13;;;28.80;55.60;;;;;;5123038;27;20439;-69
2021/06/28 09:42:16;;;;;;;3.10;2.20;;;28.90;55.50;;;;;;5120909;27;20851;-69
2021/06/28 09:44:51;;;;;;;3.10;2.10;;;28.90;57.10;;;;;;5119566;27;20513;-69
2021/06/28 09:47:22;;;;;;;2.50;1.83;;;28.80;55.10;;;;;;5118638;27;20590;-69
2021/06/28 09:50:01;;;;;;;3.50;1.83;;;28.90;55.00;;;;;;5123159;27;20455;-69
2021/06/28 09:52:32;;;;;;;3.07;2.47;;;28.90;55.00;;;;;;5125911;27;20537;-69
2021/06/28 09:55:14;;;;;;;2.40;1.80;;;29.00;56.30;;;;;;5122217;27;20500;-69
2021/06/28 09:58:04;;;;;;;3.70;2.20;;;29.10;56.90;;;;;;5121441;27;20478;-69
2021/06/28 10:00:31;;;;;;;2.87;1.90;;;29.20;57.10;;;;;;5122434;27;20469;-70
2021/06/28 10:02:58;;;;;;;2.50;1.80;;;29.30;56.20;;;;;;5122991;27;20534;-70
2021/06/28 10:05:29;;;;;;;2.83;1.77;;;29.40;53.90;;;;;;5121361;27;20508;-69
2021/06/28 10:07:56;;;;;;;3.03;1.70;;;29.50;54.50;;;;;;5121323;27;20451;-69
2021/06/28 10:10:28;;;;;;;2.47;1.60;;;29.70;54.20;;;;;;5124976;27;20525;-69
2021/06/28 10:13:04;;;;;;;2.20;1.33;;;29.80;52.80;;;;;;5122075;27;20544;-69
2021/06/28 10:15:33;;;;;;;2.20;1.77;;;29.90;51.80;;;;;;5121976;27;20437;-69
2021/06/28 10:18:02;;;;;;;2.73;1.67;;;29.90;52.30;;;;;;5121493;27;20869;-69
2021/06/28 10:20:36;;;;;;;3.27;1.80;;;30.00;50.40;;;;;;5121113;27;20529;-70
2021/06/28 10:23:04;;;;;;;2.60;1.67;;;30.10;52.00;;;;;;5122397;27;20541;-70
2021/06/28 10:25:34;;;;;;;2.30;1.60;;;30.30;53.20;;;;;;5122005;27;20472;-69
2021/06/28 10:28:07;;;;;;;3.13;1.87;;;30.40;53.10;;;;;;5120370;27;20934;-70
2021/06/28 10:30:34;;;;;;;3.50;1.53;;;30.50;52.20;;;;;;5125148;27;20485;-70
2021/06/28 10:33:05;;;;;;;4.20;3.20;;;30.60;51.50;;;;;;5122010;27;20503;-70
2021/06/28 10:35:38;;;;;;;2.47;1.60;;;30.60;51.50;;;;;;5113188;27;20446;-71
2021/06/28 10:38:08;;;;;;;3.40;1.90;;;30.70;52.40;;;;;;5110243;27;20502;-70
2021/06/28 10:40:53;;;;;;;2.93;1.70;;;30.80;50.50;;;;;;5121682;27;20474;-69
2021/06/28 10:43:27;;;;;;;2.20;1.80;;;30.80;47.40;;;;;;5117439;27;20441;-70
2021/06/28 10:45:54;;;;;;;2.20;1.50;;;30.80;49.00;;;;;;5115953;27;20822;-69
2021/06/28 10:48:22;;;;;;;3.17;1.60;;;30.80;49.90;;;;;;5113681;27;20533;-70
2021/06/28 10:50:55;;;;;;;2.37;1.40;;;30.90;51.00;;;;;;5116922;27;20516;-70
2021/06/28 10:54:11;;;;;;;2.00;1.20;;;30.90;47.70;;;;;;5113921;27;20972;-70
2021/06/28 10:56:57;;;;;;;3.00;1.53;;;31.00;48.30;;;;;;5110453;27;20446;-71
2021/06/28 10:59:27;;;;;;;2.10;1.40;;;30.90;46.80;;;;;;5110149;27;20450;-70
2021/06/28 11:02:11;;;;;;;3.57;1.50;;;30.90;47.20;;;;;;5115396;27;20434;-70
2021/06/28 11:04:45;;;;;;;2.10;1.47;;;31.00;46.30;;;;;;5108309;27;20553;-69
2021/06/28 11:07:19;;;;;;;2.17;1.40;;;31.00;45.60;;;;;;5116490;27;20992;-70
2021/06/28 11:09:49;;;;;;;3.03;1.23;;;31.00;46.80;;;;;;5108193;28;20768;-69
2021/06/28 11:12:29;;;;;;;2.27;1.57;;;31.10;47.10;;;;;;5112245;28;20481;-72
2021/06/28 11:15:12;;;;;;;3.27;1.60;;;31.10;45.70;;;;;;5111892;28;20466;-69
2021/06/28 11:17:41;;;;;;;3.40;1.80;;;31.20;45.10;;;;;;5113293;27;20445;-71
2021/06/28 11:20:18;;;;;;;2.60;1.80;;;31.20;49.10;;;;;;5112825;28;20546;-69
2021/06/28 11:22:51;;;;;;;2.77;1.93;;;31.20;45.80;;;;;;5112305;28;20466;-69
2021/06/28 11:25:24;;;;;;;2.10;1.53;;;31.20;47.10;;;;;;5108191;28;20465;-70
2021/06/28 11:28:27;;;;;;;2.67;1.77;;;31.30;47.00;;;;;;5107269;28;20517;-70
2021/06/28 11:30:58;;;;;;;2.30;1.60;;;31.30;46.30;;;;;;5111277;28;20437;-70
2021/06/28 11:33:43;;;;;;;2.33;1.60;;;31.40;44.90;;;;;;5107775;28;20481;-70
2021/06/28 11:36:36;;;;;;;2.83;1.50;;;31.50;46.90;;;;;;5110540;28;20518;-70
2021/06/28 11:39:24;;;;;;;2.37;1.80;;;31.60;47.50;;;;;;5113493;28;20430;-70
2021/06/28 11:42:33;;;;;;;3.50;1.43;;;31.70;44.70;;;;;;5111580;28;20442;-71
2021/06/28 11:45:03;;;;;;;2.50;1.73;;;31.70;44.20;;;;;;5074210;28;20516;-70
2021/06/28 11:48:04;;;;;;;2.67;2.30;;;31.70;44.90;;;;;;5112018;28;20438;-69
2021/06/28 11:50:34;;;;;;;2.47;1.70;;;31.80;48.40;;;;;;5098165;28;20825;-70
2021/06/28 11:53:03;;;;;;;2.70;1.90;;;31.80;45.20;;;;;;5112519;28;20508;-70
2021/06/28 11:55:33;;;;;;;4.33;1.93;;;31.80;44.70;;;;;;5110335;28;20952;-70
2021/06/28 11:58:01;;;;;;;2.63;1.73;;;31.80;44.90;;;;;;5110273;28;20451;-72
2021/06/28 12:00:29;;;;;;;3.20;1.83;;;31.80;45.50;;;;;;5111366;28;20438;-69
2021/06/28 12:03:18;;;;;;;3.27;1.60;;;31.80;44.10;;;;;;5110705;28;20426;-71
2021/06/28 12:05:46;;;;;;;2.70;1.87;;;31.90;45.70;;;;;;5115287;28;20426;-74
2021/06/28 12:08:33;;;;;;;2.83;1.70;;;31.80;44.80;;;;;;5116851;27;20467;-70
2021/06/28 12:11:02;;;;;;;2.60;1.77;;;31.80;43.90;;;;;;5115594;27;20461;-70
2021/06/28 12:13:39;;;;;;;3.47;1.73;;;31.80;42.60;;;;;;5114747;28;20526;-69
2021/06/28 12:16:23;;;;;;;2.87;2.13;;;31.80;45.30;;;;;;5112117;28;20802;-70
2021/06/28 12:19:09;;;;;;;2.50;1.63;;;31.80;46.90;;;;;;5111029;28;20788;-69
2021/06/28 12:21:39;;;;;;;3.83;2.80;;;31.80;44.60;;;;;;5114644;27;20457;-70
2021/06/28 12:24:09;;;;;;;3.20;2.20;;;31.90;45.20;;;;;;5114802;28;20430;-69
2021/06/28 12:26:37;;;;;;;2.93;2.10;;;31.80;44.60;;;;;;5115222;27;20932;-74
2021/06/28 12:29:34;;;;;;;3.97;2.20;;;31.80;43.60;;;;;;5115155;28;20483;-71
2021/06/28 12:32:13;;;;;;;2.63;1.73;;;31.80;45.10;;;;;;5117165;27;20946;-69
2021/06/28 12:34:46;;;;;;;2.10;1.60;;;31.80;41.80;;;;;;5114815;28;20487;-69
2021/06/28 12:37:20;;;;;;;3.67;2.40;;;31.80;42.20;;;;;;5114110;28;20829;-70
2021/06/28 12:39:47;;;;;;;7.10;2.57;;;31.70;43.20;;;;;;5114533;28;20885;-69
2021/06/28 12:42:18;;;;;;;3.83;2.00;;;31.70;44.10;;;;;;5118445;27;20527;-71
2021/06/28 12:44:47;;;;;;;3.50;2.33;;;31.70;43.60;;;;;;5110544;28;20433;-69
2021/06/28 12:47:16;;;;;;;3.23;2.77;;;31.70;45.30;;;;;;5114347;28;20441;-69
2021/06/28 12:49:48;;;;;;;2.33;1.80;;;31.60;43.50;;;;;;5116884;27;20429;-73
2021/06/28 12:52:36;;;;;;;2.77;1.70;;;31.60;43.80;;;;;;5112477;27;20469;-69
2021/06/28 12:55:10;;;;;;;2.43;1.67;;;31.50;44.60;;;;;;5103619;28;20441;-69
2021/06/28 12:57:39;;;;;;;2.20;1.77;;;31.50;46.30;;;;;;5115863;27;20470;-69
2021/06/28 13:00:25;;;;;;;2.63;1.70;;;31.60;44.70;;;;;;5114056;28;20438;-70
2021/06/28 13:02:59;;;;;;;2.60;1.80;;;31.60;44.90;;;;;;5113871;28;20995;-69